Time;durP1;ratioP1;P1;durP2;ratioP2;P2;SDS_P1;SDS_P2;PMS_P1;PMS_P2;Temp;Humidity;BMP_temperature;BMP_pressure;BME280_temperature;BME280_humidity;BME280_pressure;Samples;Min_cycle;Max_cycle;Signal;HPM_P1;HPM_P2
2022/06/28 00:01:40;;;;;;;;;;;16.80;99.90;;;;;;5004831;28;19932;-55
2022/06/28 00:04:06;;;;;;;;;;;16.80;99.90;;;;;;5004586;28;20295;-54
2022/06/28 00:06:31;;;;;;;;;;;16.80;99.90;;;;;;5004112;28;19952;-55
2022/06/28 00:08:57;;;;;;;;;;;16.70;99.90;;;;;;5003865;28;19937;-56
2022/06/28 00:11:22;;;;;;;;;;;16.70;99.90;;;;;;5003898;28;19992;-56
2022/06/28 00:13:48;;;;;;;;;;;16.80;99.90;;;;;;5004193;28;19929;-55
2022/06/28 00:16:16;;;;;;;;;;;16.80;99.90;;;;;;5004326;28;19909;-57
2022/06/28 00:18:43;;;;;;;;;;;16.80;99.90;;;;;;5004803;28;20008;-53
2022/06/28 00:21:09;;;;;;;;;;;16.80;99.90;;;;;;5004496;28;19912;-58
2022/06/28 00:23:36;;;;;;;;;;;16.90;99.90;;;;;;5004216;28;20398;-56
2022/06/28 00:26:02;;;;;;;;;;;17.00;99.90;;;;;;5001954;28;19925;-54
2022/06/28 00:28:27;;;;;;;;;;;17.00;99.90;;;;;;5003474;28;19906;-54
2022/06/28 00:30:53;;;;;;;;;;;16.90;99.90;;;;;;5003701;28;19987;-58
2022/06/28 00:33:18;;;;;;;;;;;16.90;99.90;;;;;;5005346;28;19906;-57
2022/06/28 00:35:44;;;;;;;;;;;16.90;99.90;;;;;;5004523;28;20414;-56
2022/06/28 00:38:09;;;;;;;;;;;16.90;99.90;;;;;;5001221;28;20303;-56
2022/06/28 00:40:39;;;;;;;;;;;16.90;99.90;;;;;;5001776;28;19909;-54
2022/06/28 00:43:05;;;;;;;;;;;16.80;99.90;;;;;;5003605;28;19996;-53
2022/06/28 00:45:30;;;;;;;;;;;16.70;99.90;;;;;;5001671;28;19941;-54
2022/06/28 00:47:56;;;;;;;;;;;16.80;99.90;;;;;;5003617;28;19905;-52
2022/06/28 00:50:21;;;;;;;;;;;16.70;99.90;;;;;;5003404;28;19913;-57
2022/06/28 00:53:06;;;;;;;;;;;16.70;99.90;;;;;;5003608;28;19913;-53
2022/06/28 00:55:31;;;;;;;;;;;16.70;99.90;;;;;;5003509;28;19913;-57
2022/06/28 00:57:57;;;;;;;;;;;16.70;99.90;;;;;;5003205;28;19906;-57
2022/06/28 01:00:23;;;;;;;;;;;16.70;99.90;;;;;;5002322;28;19906;-58
2022/06/28 01:02:48;;;;;;;;;;;16.70;99.90;;;;;;5003607;28;19951;-56
2022/06/28 01:05:14;;;;;;;;;;;16.70;99.90;;;;;;5003760;28;19988;-53
2022/06/28 01:07:40;;;;;;;;;;;16.70;99.90;;;;;;5004007;28;20394;-55
2022/06/28 01:10:06;;;;;;;;;;;16.60;99.90;;;;;;5003719;28;20004;-54
2022/06/28 01:12:31;;;;;;;;;;;16.60;99.90;;;;;;5001972;28;19910;-55
2022/06/28 01:14:57;;;;;;;;;;;16.60;99.90;;;;;;5003009;28;19906;-57
2022/06/28 01:17:22;;;;;;;;;;;16.50;99.90;;;;;;5003038;28;20381;-54
2022/06/28 01:19:48;;;;;;;;;;;16.50;99.90;;;;;;5003585;28;19959;-56
2022/06/28 01:22:15;;;;;;;;;;;16.40;99.90;;;;;;5003582;28;19971;-53
2022/06/28 01:24:41;;;;;;;;;;;16.30;99.90;;;;;;5003624;28;19913;-55
2022/06/28 01:27:06;;;;;;;;;;;16.40;99.90;;;;;;5001156;28;20306;-52
2022/06/28 01:29:32;;;;;;;;;;;16.30;99.90;;;;;;5001270;28;19963;-52
2022/06/28 01:31:58;;;;;;;;;;;16.30;99.90;;;;;;5003792;28;20286;-58
2022/06/28 01:34:23;;;;;;;;;;;16.30;99.90;;;;;;5002448;28;19909;-54
2022/06/28 01:36:49;;;;;;;;;;;16.30;99.90;;;;;;5004195;28;19905;-57
2022/06/28 01:39:14;;;;;;;;;;;16.30;99.90;;;;;;5004108;28;19951;-57
2022/06/28 01:41:40;;;;;;;;;;;16.30;99.90;;;;;;5001867;28;20013;-54
2022/06/28 01:44:06;;;;;;;;;;;16.30;99.90;;;;;;5004637;28;19959;-54
2022/06/28 01:46:33;;;;;;;;;;;16.30;99.90;;;;;;5002977;28;19996;-53
2022/06/28 01:48:58;;;;;;;;;;;16.30;99.90;;;;;;5004197;28;19909;-53
2022/06/28 01:51:24;;;;;;;;;;;16.30;99.90;;;;;;5002694;28;19952;-55
2022/06/28 01:53:49;;;;;;;;;;;16.30;99.90;;;;;;5003199;28;19992;-54
2022/06/28 01:56:15;;;;;;;;;;;16.30;99.90;;;;;;5002984;28;19906;-57
2022/06/28 01:58:41;;;;;;;;;;;16.30;99.90;;;;;;5003065;28;19905;-54
2022/06/28 02:01:07;;;;;;;;;;;16.30;99.90;;;;;;4997663;28;19906;-56
2022/06/28 02:03:32;;;;;;;;;;;16.20;99.90;;;;;;5001724;28;19905;-53
2022/06/28 02:05:57;;;;;;;;;;;16.20;99.90;;;;;;5001123;28;19944;-55
2022/06/28 02:08:23;;;;;;;;;;;16.20;99.90;;;;;;5001233;28;19955;-57
2022/06/28 02:10:48;;;;;;;;;;;16.10;99.90;;;;;;5002227;28;19914;-57
2022/06/28 02:13:14;;;;;;;;;;;16.10;99.90;;;;;;5004851;28;20359;-56
2022/06/28 02:15:39;;;;;;;;;;;16.10;99.90;;;;;;5004610;28;19905;-55
2022/06/28 02:18:05;;;;;;;;;;;16.00;99.90;;;;;;5004229;28;19905;-54
2022/06/28 02:20:31;;;;;;;;;;;16.00;99.90;;;;;;5006115;28;19906;-56
2022/06/28 02:22:56;;;;;;;;;;;16.00;99.90;;;;;;5006197;28;19910;-54
2022/06/28 02:25:22;;;;;;;;;;;16.00;99.90;;;;;;5006103;28;19909;-57
2022/06/28 02:27:47;;;;;;;;;;;15.90;99.90;;;;;;5006606;28;19953;-56
2022/06/28 02:30:13;;;;;;;;;;;15.80;99.90;;;;;;5006592;28;19919;-57
2022/06/28 02:32:38;;;;;;;;;;;15.80;99.90;;;;;;5006835;28;19960;-55
2022/06/28 02:40:33;;;;;;;;;;;15.70;99.90;;;;;;5006237;28;20370;-57
2022/06/28 02:42:59;;;;;;;;;;;15.60;99.90;;;;;;5005858;28;19941;-56
2022/06/28 02:45:29;;;;;;;;;;;15.70;99.90;;;;;;5005900;28;19940;-54
2022/06/28 02:47:55;;;;;;;;;;;15.60;99.90;;;;;;5005640;28;19913;-58
2022/06/28 02:50:20;;;;;;;;;;;15.60;99.90;;;;;;5005546;28;19913;-58
2022/06/28 02:52:46;;;;;;;;;;;15.60;99.90;;;;;;5005825;28;19921;-56
2022/06/28 02:55:12;;;;;;;;;;;15.60;99.90;;;;;;4996922;28;20375;-56
2022/06/28 02:57:38;;;;;;;;;;;15.50;99.90;;;;;;4996685;28;20414;-52
2022/06/28 03:00:07;;;;;;;;;;;15.50;99.90;;;;;;4997208;28;19906;-55
2022/06/28 03:02:34;;;;;;;;;;;15.60;99.90;;;;;;4996913;28;19905;-57
2022/06/28 03:04:59;;;;;;;;;;;15.60;99.90;;;;;;4996652;28;19913;-56
2022/06/28 03:07:25;;;;;;;;;;;15.60;99.90;;;;;;4996699;28;19906;-58
2022/06/28 03:09:50;;;;;;;;;;;15.60;99.90;;;;;;4996653;28;19910;-57
2022/06/28 03:12:16;;;;;;;;;;;15.50;99.90;;;;;;4996970;28;20359;-56
2022/06/28 03:14:41;;;;;;;;;;;15.50;99.90;;;;;;4996916;28;19910;-56
2022/06/28 03:17:07;;;;;;;;;;;15.50;99.90;;;;;;4997632;28;20417;-56
2022/06/28 03:19:32;;;;;;;;;;;15.50;99.90;;;;;;4997203;28;19913;-55
2022/06/28 03:21:58;;;;;;;;;;;15.60;99.90;;;;;;4995803;28;19992;-55
2022/06/28 03:24:23;;;;;;;;;;;15.50;99.90;;;;;;4996269;28;19906;-56
2022/06/28 03:26:49;;;;;;;;;;;15.60;99.90;;;;;;4996486;28;20369;-54
2022/06/28 03:29:14;;;;;;;;;;;15.50;99.90;;;;;;4996422;28;19940;-56
2022/06/28 03:31:40;;;;;;;;;;;15.50;99.90;;;;;;4996355;28;20326;-54
2022/06/28 03:34:05;;;;;;;;;;;15.40;99.90;;;;;;4996328;28;19953;-58
2022/06/28 03:36:31;;;;;;;;;;;15.40;99.90;;;;;;4996382;28;19959;-57
2022/06/28 03:38:56;;;;;;;;;;;15.40;99.90;;;;;;4996396;28;19905;-57
2022/06/28 03:41:24;;;;;;;;;;;15.40;99.90;;;;;;4996129;28;19910;-54
2022/06/28 03:43:51;;;;;;;;;;;15.40;99.90;;;;;;4996010;28;19906;-54
2022/06/28 03:46:16;;;;;;;;;;;15.40;99.90;;;;;;4996980;28;19956;-57
2022/06/28 03:48:43;;;;;;;;;;;15.40;99.90;;;;;;4996339;28;19909;-54
2022/06/28 03:51:08;;;;;;;;;;;15.40;99.90;;;;;;4996083;28;19913;-55
2022/06/28 03:53:34;;;;;;;;;;;15.40;99.90;;;;;;4995783;28;19914;-56
2022/06/28 03:55:59;;;;;;;;;;;15.40;99.90;;;;;;4995896;28;19910;-57
2022/06/28 03:58:25;;;;;;;;;;;15.40;99.90;;;;;;4996154;28;19941;-57
2022/06/28 04:00:50;;;;;;;;;;;15.40;99.90;;;;;;4996052;28;19906;-55
2022/06/28 04:03:16;;;;;;;;;;;15.40;99.90;;;;;;4995650;28;20008;-57
2022/06/28 04:05:41;;;;;;;;;;;15.40;99.90;;;;;;4995616;28;19910;-53
2022/06/28 04:08:08;;;;;;;;;;;15.40;99.90;;;;;;4995648;28;20326;-56
2022/06/28 04:10:34;;;;;;;;;;;15.50;99.90;;;;;;4995647;28;20356;-55
2022/06/28 04:12:59;;;;;;;;;;;15.50;99.90;;;;;;4995433;28;19942;-54
2022/06/28 04:15:25;;;;;;;;;;;15.50;99.90;;;;;;4995667;28;19952;-52
2022/06/28 04:17:50;;;;;;;;;;;15.50;99.90;;;;;;4995798;28;19906;-55
2022/06/28 04:20:15;;;;;;;;;;;15.50;99.90;;;;;;4995503;28;19913;-56
2022/06/28 04:22:41;;;;;;;;;;;15.40;99.90;;;;;;4995265;28;20401;-54
2022/06/28 04:25:07;;;;;;;;;;;15.50;99.90;;;;;;4995896;28;19996;-57
2022/06/28 04:27:32;;;;;;;;;;;15.50;99.90;;;;;;4995914;28;19997;-56
2022/06/28 04:29:59;;;;;;;;;;;15.50;99.90;;;;;;4995499;28;20057;-55
2022/06/28 04:32:25;;;;;;;;;;;15.50;99.90;;;;;;4995585;28;20294;-55
2022/06/28 04:34:50;;;;;;;;;;;15.50;99.90;;;;;;4995234;28;19913;-56
2022/06/28 04:37:16;;;;;;;;;;;15.50;99.90;;;;;;4995427;28;19956;-57
2022/06/28 04:39:42;;;;;;;;;;;15.50;99.90;;;;;;4995541;28;19925;-57
2022/06/28 04:42:07;;;;;;;;;;;15.50;99.90;;;;;;4995504;28;19921;-56
2022/06/28 04:44:33;;;;;;;;;;;15.50;99.90;;;;;;4995269;28;19906;-56
2022/06/28 04:47:00;;;;;;;;;;;15.50;99.90;;;;;;4995256;28;19906;-57
2022/06/28 04:49:25;;;;;;;;;;;15.50;99.90;;;;;;4994997;28;19957;-56
2022/06/28 04:51:51;;;;;;;;;;;15.50;99.90;;;;;;4986296;28;19964;-54
2022/06/28 04:54:16;;;;;;;;;;;15.50;99.90;;;;;;4983953;28;19910;-57
2022/06/28 04:56:42;;;;;;;;;;;15.60;99.90;;;;;;4988852;28;19998;-56
2022/06/28 04:59:07;;;;;;;;;;;15.60;99.90;;;;;;4995279;28;19905;-57
2022/06/28 05:01:33;;;;;;;;;;;15.60;99.90;;;;;;4994855;28;20323;-56
2022/06/28 05:03:58;;;;;;;;;;;15.60;99.90;;;;;;4994986;28;19905;-53
2022/06/28 05:06:24;;;;;;;;;;;15.60;99.90;;;;;;4994882;28;20385;-57
2022/06/28 05:08:49;;;;;;;;;;;15.70;99.90;;;;;;4993933;28;19916;-55
2022/06/28 05:11:15;;;;;;;;;;;15.70;99.90;;;;;;4995163;28;19913;-54
2022/06/28 05:13:40;;;;;;;;;;;15.70;99.90;;;;;;4994778;28;20004;-55
2022/06/28 05:16:06;;;;;;;;;;;15.80;99.90;;;;;;4994790;28;20381;-56
2022/06/28 05:18:31;;;;;;;;;;;15.80;99.90;;;;;;4994732;28;19913;-57
2022/06/28 05:20:57;;;;;;;;;;;15.90;99.90;;;;;;4994667;28;19906;-54
2022/06/28 05:23:23;;;;;;;;;;;16.00;99.90;;;;;;4977781;28;19910;-55
2022/06/28 05:25:48;;;;;;;;;;;16.00;99.90;;;;;;4975126;28;20431;-57
2022/06/28 05:28:14;;;;;;;;;;;16.00;99.90;;;;;;4974699;28;19914;-56
2022/06/28 05:30:39;;;;;;;;;;;16.10;99.90;;;;;;4975032;28;19913;-56
2022/06/28 05:33:05;;;;;;;;;;;16.10;99.90;;;;;;4978652;28;19965;-55
2022/06/28 05:35:31;;;;;;;;;;;16.20;99.90;;;;;;4995134;28;19906;-56
2022/06/28 05:37:57;;;;;;;;;;;16.30;99.90;;;;;;4995789;28;19913;-56
2022/06/28 05:40:23;;;;;;;;;;;16.40;99.90;;;;;;4994850;28;19913;-55
2022/06/28 05:42:48;;;;;;;;;;;16.50;99.90;;;;;;4994733;28;19907;-55
2022/06/28 05:45:14;;;;;;;;;;;16.60;99.90;;;;;;4994532;28;20413;-58
2022/06/28 05:47:39;;;;;;;;;;;16.70;99.90;;;;;;4994330;28;19949;-58
2022/06/28 05:50:05;;;;;;;;;;;16.70;99.90;;;;;;4994215;28;19910;-57
2022/06/28 05:52:30;;;;;;;;;;;16.70;99.90;;;;;;5027608;22;19929;-73
2022/06/28 05:54:56;;;;;;;;;;;16.80;99.90;;;;;;4996408;28;19906;-72
2022/06/28 05:57:22;;;;;;;;;;;16.90;99.90;;;;;;4996773;28;19906;-72
2022/06/28 05:59:47;;;;;;;;;;;17.00;99.90;;;;;;4996643;28;19953;-71
2022/06/28 06:02:13;;;;;;;;;;;17.10;99.90;;;;;;4996803;28;19906;-71
2022/06/28 06:04:38;;;;;;;;;;;17.10;99.90;;;;;;4996508;28;20317;-72
2022/06/28 06:07:04;;;;;;;;;;;17.20;99.90;;;;;;4996192;28;19906;-73
2022/06/28 06:09:30;;;;;;;;;;;17.30;99.90;;;;;;4994611;28;19925;-73
2022/06/28 06:11:55;;;;;;;;;;;17.40;99.90;;;;;;4996411;28;19906;-73
2022/06/28 06:14:21;;;;;;;;;;;17.50;99.90;;;;;;4985408;28;20457;-73
2022/06/28 06:16:50;;;;;;;;;;;17.50;99.90;;;;;;4979440;28;19913;-73
2022/06/28 06:19:16;;;;;;;;;;;17.60;99.90;;;;;;4977528;28;19934;-72
2022/06/28 06:21:41;;;;;;;;;;;17.70;99.90;;;;;;4977672;28;19913;-73
2022/06/28 06:24:07;;;;;;;;;;;17.70;99.90;;;;;;4978592;28;19930;-73
2022/06/28 06:26:33;;;;;;;;;;;17.80;99.90;;;;;;4978326;28;19906;-73
2022/06/28 06:28:59;;;;;;;;;;;17.90;99.90;;;;;;4976335;28;20323;-72
2022/06/28 06:31:24;;;;;;;;;;;18.00;99.90;;;;;;4977887;28;20299;-73
2022/06/28 06:33:51;;;;;;;;;;;18.10;99.90;;;;;;4978357;28;20637;-72
2022/06/28 06:36:17;;;;;;;;;;;18.20;99.90;;;;;;4978195;28;19906;-72
2022/06/28 06:38:42;;;;;;;;;;;18.30;99.90;;;;;;4978018;28;20072;-73
2022/06/28 06:41:08;;;;;;;;;;;18.30;99.90;;;;;;4976251;28;20363;-72
2022/06/28 06:43:34;;;;;;;;;;;18.30;99.90;;;;;;4977856;28;19933;-73
2022/06/28 06:46:00;;;;;;;;;;;18.40;99.90;;;;;;4977890;28;19906;-73
2022/06/28 06:48:25;;;;;;;;;;;18.40;99.90;;;;;;4978206;28;20374;-73
2022/06/28 06:50:51;;;;;;;;;;;18.50;99.90;;;;;;4978144;28;19913;-73
2022/06/28 06:53:19;;;;;;;;;;;18.50;99.90;;;;;;4980292;28;19914;-75
2022/06/28 06:55:46;;;;;;;;;;;18.60;99.90;;;;;;4982226;28;19906;-74
2022/06/28 06:58:12;;;;;;;;;;;18.70;99.90;;;;;;4984427;28;19913;-75
2022/06/28 07:00:38;;;;;;;;;;;18.70;99.90;;;;;;4985828;28;19906;-74
2022/06/28 07:03:03;;;;;;;;;;;18.90;99.90;;;;;;4986621;28;19906;-74
2022/06/28 07:05:29;;;;;;;;;;;19.00;99.90;;;;;;4985928;28;20394;-74
2022/06/28 07:07:55;;;;;;;;;;;18.90;99.90;;;;;;4982952;28;20264;-75
2022/06/28 07:10:21;;;;;;;;;;;19.00;99.90;;;;;;4981525;28;19938;-75
2022/06/28 07:12:46;;;;;;;;;;;19.00;99.90;;;;;;4980394;28;19985;-73
2022/06/28 07:15:12;;;;;;;;;;;19.00;99.90;;;;;;4979831;28;19912;-73
2022/06/28 07:17:37;;;;;;;;;;;19.00;99.90;;;;;;4979919;28;19906;-73
2022/06/28 07:20:03;;;;;;;;;;;19.10;99.90;;;;;;4980870;28;19906;-73
2022/06/28 07:22:28;;;;;;;;;;;19.20;99.90;;;;;;4987830;28;19945;-73
2022/06/28 07:24:56;;;;;;;;;;;19.10;99.90;;;;;;4983401;28;20021;-73
2022/06/28 07:27:22;;;;;;;;;;;19.20;99.90;;;;;;4979165;28;19906;-73
2022/06/28 07:29:48;;;;;;;;;;;19.40;99.90;;;;;;4978870;28;20367;-73
2022/06/28 07:32:14;;;;;;;;;;;19.50;99.90;;;;;;4977459;28;19906;-73
2022/06/28 07:34:40;;;;;;;;;;;19.50;99.90;;;;;;4979073;28;19952;-73
2022/06/28 07:37:05;;;;;;;;;;;19.70;99.90;;;;;;4979077;28;19956;-73
2022/06/28 07:39:31;;;;;;;;;;;19.90;99.90;;;;;;4978182;28;19917;-73
2022/06/28 07:41:56;;;;;;;;;;;19.90;99.90;;;;;;4977458;28;19906;-73
2022/06/28 07:44:22;;;;;;;;;;;20.00;99.90;;;;;;4979310;28;19912;-73
2022/06/28 07:46:47;;;;;;;;;;;19.80;99.90;;;;;;4978603;28;19956;-73
2022/06/28 07:49:13;;;;;;;;;;;19.80;99.90;;;;;;4978834;28;19910;-74
2022/06/28 07:54:23;;;;;;;;;;;19.70;99.90;;;;;;4979072;28;19921;-73
2022/06/28 07:56:48;;;;;;;;;;;19.70;99.90;;;;;;4978592;28;19906;-73
2022/06/28 07:59:14;;;;;;;;;;;19.80;99.90;;;;;;4978261;28;19914;-74
2022/06/28 08:01:39;;;;;;;;;;;19.90;99.90;;;;;;4978064;28;19953;-73
2022/06/28 08:04:05;;;;;;;;;;;20.10;99.90;;;;;;4979153;28;19913;-73
2022/06/28 08:06:31;;;;;;;;;;;20.00;99.90;;;;;;4979395;28;20068;-73
2022/06/28 08:08:56;;;;;;;;;;;20.10;99.90;;;;;;4979073;28;19906;-73
2022/06/28 08:11:22;;;;;;;;;;;20.20;99.90;;;;;;4977480;28;19929;-73
2022/06/28 08:13:48;;;;;;;;;;;20.40;99.90;;;;;;4978686;28;19910;-73
2022/06/28 08:16:13;;;;;;;;;;;20.70;99.90;;;;;;4979491;28;20286;-73
2022/06/28 08:18:39;;;;;;;;;;;20.70;99.90;;;;;;4978158;28;19969;-73
2022/06/28 08:21:05;;;;;;;;;;;20.90;99.90;;;;;;4979834;28;19948;-73
2022/06/28 08:23:31;;;;;;;;;;;20.90;99.90;;;;;;4979233;28;19910;-74
2022/06/28 08:25:56;;;;;;;;;;;21.00;99.90;;;;;;4979900;28;20431;-73
2022/06/28 08:28:22;;;;;;;;;;;21.00;99.90;;;;;;4982688;28;19970;-74
2022/06/28 08:30:47;;;;;;;;;;;20.90;99.90;;;;;;4979808;28;19910;-74
2022/06/28 08:33:13;;;;;;;;;;;20.60;99.90;;;;;;4979285;28;20421;-74
2022/06/28 08:35:39;;;;;;;;;;;20.60;99.90;;;;;;4979911;28;19906;-74
2022/06/28 08:38:05;;;;;;;;;;;20.80;99.90;;;;;;4979056;28;19906;-74
2022/06/28 08:40:31;;;;;;;;;;;21.00;99.90;;;;;;4979304;28;20000;-75
2022/06/28 08:42:57;;;;;;;;;;;21.30;99.90;;;;;;4978012;28;19913;-76
2022/06/28 08:45:23;;;;;;;;;;;21.40;99.90;;;;;;4978060;28;19906;-76
2022/06/28 08:47:53;;;;;;;;;;;21.40;99.90;;;;;;4978312;28;19906;-75
2022/06/28 08:50:39;;;;;;;;;;;21.40;99.90;;;;;;4978731;28;19910;-74
2022/06/28 08:53:06;;;;;;;;;;;21.40;99.90;;;;;;4980414;28;20383;-74
2022/06/28 08:55:32;;;;;;;;;;;21.50;99.90;;;;;;4979824;28;20274;-74
2022/06/28 08:57:59;;;;;;;;;;;21.60;99.90;;;;;;4976959;28;19906;-74
2022/06/28 09:00:25;;;;;;;;;;;21.80;99.90;;;;;;4978054;28;19905;-75
2022/06/28 09:02:51;;;;;;;;;;;21.90;99.90;;;;;;4977357;28;19965;-75
2022/06/28 09:05:19;;;;;;;;;;;22.00;99.90;;;;;;4978720;28;19930;-76
2022/06/28 09:07:45;;;;;;;;;;;22.20;99.90;;;;;;4976643;28;19936;-76
2022/06/28 09:10:10;;;;;;;;;;;22.20;99.90;;;;;;4977097;28;19914;-74
2022/06/28 09:12:36;;;;;;;;;;;22.30;99.90;;;;;;4969434;28;19910;-74
2022/06/28 09:15:05;;;;;;;;;;;22.30;99.90;;;;;;4973643;28;20391;-74
2022/06/28 09:17:31;;;;;;;;;;;22.40;99.90;;;;;;4977531;28;20553;-74
2022/06/28 09:20:05;;;;;;;;;;;22.50;99.90;;;;;;4976072;28;19906;-71
2022/06/28 09:22:31;;;;;;;;;;;22.50;99.90;;;;;;4976459;28;19917;-74
2022/06/28 09:24:57;;;;;;;;;;;22.50;99.90;;;;;;4977909;28;19910;-73
2022/06/28 09:27:30;;;;;;;;;;;22.60;99.90;;;;;;4978747;28;20011;-73
2022/06/28 09:29:55;;;;;;;;;;;22.70;99.90;;;;;;4978828;28;19925;-72
2022/06/28 09:32:28;;;;;;;;;;;22.70;99.90;;;;;;4977832;28;19906;-72
2022/06/28 09:34:55;;;;;;;;;;;22.70;99.90;;;;;;4977179;28;20249;-73
2022/06/28 09:37:34;;;;;;;;;;;22.70;99.90;;;;;;4976953;28;19992;-73
2022/06/28 09:40:32;;;;;;;;;;;22.80;99.90;;;;;;4975903;28;19907;-73
2022/06/28 09:43:11;;;;;;;;;;;22.80;99.90;;;;;;4965567;28;19910;-72
2022/06/28 09:45:39;;;;;;;;;;;22.80;99.90;;;;;;4978207;28;19913;-73
2022/06/28 09:48:05;;;;;;;;;;;22.80;99.90;;;;;;4977611;28;20290;-73
2022/06/28 09:50:32;;;;;;;;;;;22.90;99.90;;;;;;4976111;28;19914;-74
2022/06/28 09:52:58;;;;;;;;;;;23.20;99.90;;;;;;4976161;28;20368;-73
2022/06/28 09:55:26;;;;;;;;;;;23.40;99.90;;;;;;4976383;28;19929;-74
2022/06/28 09:57:51;;;;;;;;;;;23.60;99.90;;;;;;4976692;28;19948;-73
2022/06/28 10:00:20;;;;;;;;;;;23.60;99.90;;;;;;4976707;28;20359;-73
2022/06/28 10:02:46;;;;;;;;;;;23.50;99.90;;;;;;4976138;28;20426;-74
2022/06/28 10:05:11;;;;;;;;;;;23.30;99.90;;;;;;4976841;28;19948;-73
2022/06/28 10:07:37;;;;;;;;;;;23.20;99.90;;;;;;4974820;28;19921;-73
2022/06/28 10:10:03;;;;;;;;;;;23.20;99.90;;;;;;4976212;28;20012;-74
2022/06/28 10:15:20;;;;;;;;;;;23.00;99.90;;;;;;4977170;28;19912;-73
2022/06/28 10:17:55;;;;;;;;;;;22.90;99.90;;;;;;4978110;28;19913;-74
2022/06/28 10:20:24;;;;;;;;;;;22.90;99.90;;;;;;4975727;28;19917;-74
2022/06/28 10:22:50;;;;;;;;;;;22.90;99.90;;;;;;4977055;28;19906;-74
2022/06/28 10:25:17;;;;;;;;;;;23.00;99.90;;;;;;4977281;28;19921;-74
2022/06/28 10:27:49;;;;;;;;;;;22.90;99.90;;;;;;4977684;28;19906;-74
2022/06/28 10:30:25;;;;;;;;;;;22.80;99.90;;;;;;4978348;28;19977;-73
2022/06/28 10:32:55;;;;;;;;;;;22.70;99.90;;;;;;4980002;28;19997;-73
2022/06/28 10:35:33;;;;;;;;;;;22.50;99.90;;;;;;4980313;28;19910;-73
2022/06/28 10:38:07;;;;;;;;;;;22.60;99.90;;;;;;4979584;28;19910;-73
2022/06/28 10:40:53;;;;;;;;;;;22.60;99.90;;;;;;4976274;28;20025;-73
2022/06/28 10:43:27;;;;;;;;;;;22.70;99.90;;;;;;4981006;28;19906;-74
2022/06/28 10:45:59;;;;;;;;;;;22.40;99.90;;;;;;4995905;28;19925;-74
2022/06/28 10:48:25;;;;;;;;;;;22.40;99.90;;;;;;4995018;28;19913;-74
2022/06/28 10:50:57;;;;;;;;;;;22.20;99.90;;;;;;4979606;28;19914;-74
2022/06/28 10:53:23;;;;;;;;;;;22.00;99.90;;;;;;4980210;28;19914;-75
2022/06/28 10:56:07;;;;;;;;;;;22.10;99.90;;;;;;4981365;28;19928;-74
2022/06/28 10:58:33;;;;;;;;;;;22.40;99.90;;;;;;4980896;28;20307;-74
2022/06/28 11:00:58;;;;;;;;;;;22.50;99.90;;;;;;4981732;28;19905;-75
2022/06/28 11:03:24;;;;;;;;;;;22.70;99.90;;;;;;4981382;28;19906;-74
2022/06/28 11:05:53;;;;;;;;;;;22.80;99.90;;;;;;4982918;28;19930;-74
2022/06/28 11:08:37;;;;;;;;;;;22.90;99.90;;;;;;4981544;28;19913;-74
2022/06/28 11:11:03;;;;;;;;;;;23.00;99.90;;;;;;4971363;28;20364;-74
2022/06/28 11:13:29;;;;;;;;;;;23.10;99.90;;;;;;4978026;28;20287;-74
2022/06/28 11:15:55;;;;;;;;;;;23.10;99.90;;;;;;4978187;28;19911;-74
2022/06/28 11:18:23;;;;;;;;;;;23.10;99.90;;;;;;4974383;28;19910;-73
2022/06/28 11:20:50;;;;;;;;;;;23.00;99.90;;;;;;4978889;28;20438;-74
2022/06/28 11:23:22;;;;;;;;;;;23.00;99.90;;;;;;4979216;28;19913;-74
2022/06/28 11:28:32;;;;;;;;;;;23.00;99.90;;;;;;4980102;28;19976;-74
2022/06/28 11:30:57;;;;;;;;;;;23.00;99.90;;;;;;4967136;28;19943;-75
2022/06/28 11:33:32;;;;;;;;;;;23.10;99.90;;;;;;4976503;28;19914;-74
2022/06/28 11:36:01;;;;;;;;;;;23.20;99.90;;;;;;4985425;28;19910;-73
2022/06/28 11:38:26;;;;;;;;;;;23.30;99.90;;;;;;4985211;28;19917;-73
2022/06/28 11:40:54;;;;;;;;;;;23.50;99.90;;;;;;5000220;28;19905;-74
2022/06/28 11:43:26;;;;;;;;;;;23.60;99.90;;;;;;4976579;28;19961;-74
2022/06/28 11:45:53;;;;;;;;;;;23.50;99.90;;;;;;4967571;28;19914;-74
2022/06/28 11:48:23;;;;;;;;;;;23.40;99.90;;;;;;4978569;28;19917;-74
2022/06/28 11:50:52;;;;;;;;;;;23.50;99.90;;;;;;4975619;28;19910;-74
2022/06/28 11:53:18;;;;;;;;;;;23.60;99.90;;;;;;4960728;28;19925;-73
2022/06/28 11:55:48;;;;;;;;;;;23.70;99.90;;;;;;4975990;28;19907;-73
2022/06/28 11:58:14;;;;;;;;;;;23.70;99.90;;;;;;4961668;28;19907;-73
2022/06/28 12:01:16;;;;;;;;;;;23.80;99.90;;;;;;4984268;28;19985;-73
2022/06/28 12:03:41;;;;;;;;;;;23.80;99.90;;;;;;4978876;28;19906;-74
2022/06/28 12:06:07;;;;;;;;;;;23.70;99.90;;;;;;4980252;28;19906;-74
2022/06/28 12:08:51;;;;;;;;;;;23.80;99.90;;;;;;5025112;23;20378;-76
2022/06/28 12:11:27;;;;;;;;;;;23.90;99.90;;;;;;5016475;28;19913;-76
2022/06/28 12:14:00;;;;;;;;;;;24.00;99.90;;;;;;5008543;28;19909;-76
2022/06/28 12:16:30;;;;;;;;;;;24.00;99.90;;;;;;5007804;28;19914;-76
2022/06/28 12:18:56;;;;;;;;;;;24.10;99.80;;;;;;5011199;28;19917;-76
2022/06/28 12:21:22;;;;;;;;;;;24.10;99.40;;;;;;4996488;28;20279;-75
2022/06/28 12:23:48;;;;;;;;;;;24.00;99.40;;;;;;4997099;28;19906;-75
2022/06/28 12:26:13;;;;;;;;;;;24.00;99.30;;;;;;4996448;28;20000;-76
2022/06/28 12:28:39;;;;;;;;;;;24.10;98.10;;;;;;4995899;28;19948;-76
2022/06/28 12:31:04;;;;;;;;;;;24.00;97.90;;;;;;4996025;28;20413;-76
2022/06/28 12:33:30;;;;;;;;;;;24.10;98.10;;;;;;5010951;28;20410;-76
2022/06/28 12:35:55;;;;;;;;;;;24.10;97.40;;;;;;4995648;28;20282;-76
2022/06/28 12:38:21;;;;;;;;;;;24.30;97.60;;;;;;4995790;28;19909;-77
2022/06/28 12:40:46;;;;;;;;;;;24.30;97.70;;;;;;4995812;28;20044;-77
2022/06/28 12:43:12;;;;;;;;;;;24.30;98.00;;;;;;4996142;28;19960;-76
2022/06/28 12:45:37;;;;;;;;;;;24.40;96.40;;;;;;5000001;28;19912;-75
2022/06/28 12:48:03;;;;;;;;;;;24.40;96.90;;;;;;5015232;28;19912;-77
2022/06/28 12:50:29;;;;;;;;;;;24.40;97.30;;;;;;5002854;28;19924;-76
2022/06/28 12:52:54;;;;;;;;;;;24.40;97.40;;;;;;5007513;28;19906;-77
2022/06/28 12:55:20;;;;;;;;;;;24.30;97.80;;;;;;5013087;28;19959;-75
2022/06/28 12:57:46;;;;;;;;;;;24.30;97.10;;;;;;5012201;28;20274;-76
2022/06/28 13:00:12;;;;;;;;;;;24.30;97.20;;;;;;5017804;28;20251;-76
2022/06/28 13:02:37;;;;;;;;;;;24.30;96.40;;;;;;5016924;28;19913;-76
2022/06/28 13:05:03;;;;;;;;;;;24.30;95.90;;;;;;5017509;28;19936;-76
2022/06/28 13:07:29;;;;;;;;;;;24.30;95.80;;;;;;5019752;28;19913;-76
2022/06/28 13:09:57;;;;;;;;;;;24.40;96.30;;;;;;5015443;28;20015;-76
2022/06/28 13:12:23;;;;;;;;;;;24.40;95.00;;;;;;5014503;28;19911;-77
2022/06/28 13:14:48;;;;;;;;;;;24.40;95.40;;;;;;5015117;28;20359;-77
2022/06/28 13:17:14;;;;;;;;;;;24.50;95.40;;;;;;5015174;28;19912;-77
2022/06/28 13:19:39;;;;;;;;;;;24.50;94.40;;;;;;5002087;28;19952;-77
2022/06/28 13:22:05;;;;;;;;;;;24.60;94.30;;;;;;4997212;28;19924;-77
2022/06/28 13:24:32;;;;;;;;;;;24.60;95.10;;;;;;4999934;28;19925;-77
2022/06/28 13:26:58;;;;;;;;;;;24.60;95.20;;;;;;5004612;28;19910;-77
2022/06/28 13:29:23;;;;;;;;;;;24.70;95.40;;;;;;5014667;28;20256;-77
2022/06/28 13:31:49;;;;;;;;;;;24.80;95.70;;;;;;5011567;28;20347;-78
2022/06/28 13:34:16;;;;;;;;;;;25.00;94.90;;;;;;5013660;28;19913;-76
2022/06/28 13:36:42;;;;;;;;;;;25.20;95.60;;;;;;5014486;28;19910;-77
2022/06/28 13:39:08;;;;;;;;;;;25.30;94.60;;;;;;4996483;28;19913;-76
2022/06/28 13:41:34;;;;;;;;;;;25.40;95.30;;;;;;4998716;28;19905;-75
2022/06/28 13:43:59;;;;;;;;;;;25.10;93.20;;;;;;5013052;28;19913;-75
2022/06/28 13:46:25;;;;;;;;;;;25.10;93.40;;;;;;5014533;28;19913;-77
2022/06/28 13:48:50;;;;;;;;;;;25.00;93.90;;;;;;5003411;28;20003;-76
2022/06/28 13:51:16;;;;;;;;;;;25.00;93.90;;;;;;5006710;28;19910;-76
2022/06/28 13:53:42;;;;;;;;;;;25.00;94.20;;;;;;5003390;28;19914;-76
2022/06/28 13:56:07;;;;;;;;;;;25.00;94.90;;;;;;4996025;28;19906;-76
2022/06/28 13:58:33;;;;;;;;;;;24.90;95.70;;;;;;4996031;28;19955;-76
2022/06/28 14:00:59;;;;;;;;;;;24.80;95.10;;;;;;5029458;28;19909;-76
2022/06/28 14:03:26;;;;;;;;;;;24.60;94.50;;;;;;5031555;28;20101;-76
2022/06/28 14:05:52;;;;;;;;;;;24.50;94.70;;;;;;5014707;28;20278;-77
2022/06/28 14:08:17;;;;;;;;;;;24.60;95.50;;;;;;5016103;28;20016;-77
2022/06/28 14:10:43;;;;;;;;;;;24.70;95.40;;;;;;5014303;28;19968;-77
2022/06/28 14:13:08;;;;;;;;;;;24.90;94.10;;;;;;5018445;28;20341;-76
2022/06/28 14:15:34;;;;;;;;;;;25.10;93.10;;;;;;5014574;28;19906;-76
2022/06/28 14:18:00;;;;;;;;;;;25.20;92.90;;;;;;5006091;28;19953;-76
2022/06/28 14:20:26;;;;;;;;;;;25.30;92.50;;;;;;5013808;28;19994;-76
2022/06/28 14:22:52;;;;;;;;;;;25.30;92.60;;;;;;5018407;28;19909;-76
2022/06/28 14:25:18;;;;;;;;;;;25.30;91.60;;;;;;5021972;28;19906;-74
2022/06/28 14:27:43;;;;;;;;;;;25.40;92.60;;;;;;5021104;28;19956;-76